createdAt,value
2023-02-16T00:01:22.261Z,7.35
2023-02-16T00:03:51.397Z,7.36
2023-02-16T00:06:19.578Z,7.40
2023-02-16T00:08:49.452Z,7.33
2023-02-16T00:11:39.637Z,7.25
2023-02-16T00:14:11.102Z,7.24
2023-02-16T00:16:39.580Z,7.23
2023-02-16T00:19:18.045Z,7.02
2023-02-16T00:21:45.990Z,7.04
2023-02-16T00:24:13.931Z,6.87
2023-02-16T00:26:44.221Z,7.11
2023-02-16T00:29:16.674Z,7.19
2023-02-16T00:31:44.736Z,7.20
2023-02-16T00:34:31.722Z,7.15
2023-02-16T00:37:02.752Z,7.12
2023-02-16T00:39:31.322Z,7.13
2023-02-16T00:42:05.440Z,7.14
2023-02-16T00:44:37.977Z,7.05
2023-02-16T00:47:18.845Z,6.98
2023-02-16T00:49:46.859Z,6.98
2023-02-16T00:52:32.385Z,7.00
2023-02-16T00:55:01.293Z,6.92
2023-02-16T00:57:35.236Z,6.93
2023-02-16T01:00:09.434Z,6.86
2023-02-16T01:02:37.384Z,6.85
2023-02-16T01:05:05.756Z,6.78
2023-02-16T01:07:51.330Z,6.80
2023-02-16T01:10:38.118Z,6.81
2023-02-16T01:13:07.447Z,6.78
2023-02-16T01:15:36.825Z,6.75
2023-02-16T01:18:05.031Z,6.78
2023-02-16T01:20:33.077Z,6.78
2023-02-16T01:23:01.042Z,6.84
2023-02-16T01:25:29.323Z,6.78
2023-02-16T01:27:57.241Z,6.80
2023-02-16T01:30:27.601Z,6.70
2023-02-16T01:32:55.963Z,6.69
2023-02-16T01:35:28.140Z,6.79
2023-02-16T01:37:56.039Z,6.75
2023-02-16T01:40:36.925Z,6.67
2023-02-16T01:43:12.255Z,6.72
2023-02-16T01:45:44.317Z,6.71
2023-02-16T01:48:22.053Z,6.74
2023-02-16T01:50:55.578Z,6.69
2023-02-16T01:53:30.444Z,6.66
2023-02-16T01:56:04.546Z,6.60
2023-02-16T01:58:37.908Z,6.37
2023-02-16T02:01:53.690Z,6.61
2023-02-16T02:04:47.090Z,6.59
2023-02-16T02:07:23.090Z,6.61
2023-02-16T02:09:58.227Z,6.48
2023-02-16T02:12:33.858Z,6.64
2023-02-16T02:15:02.392Z,6.53
2023-02-16T02:17:32.490Z,6.53
2023-02-16T02:20:09.269Z,6.55
2023-02-16T02:23:31.060Z,6.46
2023-02-16T02:26:32.616Z,6.52
2023-02-16T02:29:14.356Z,6.53
2023-02-16T02:31:53.047Z,6.42
2023-02-16T02:34:30.019Z,6.39
2023-02-16T02:37:09.429Z,6.45
2023-02-16T02:39:47.961Z,6.41
2023-02-16T02:42:24.549Z,6.38
2023-02-16T02:45:00.153Z,6.41
2023-02-16T02:47:39.615Z,6.37
2023-02-16T02:50:35.544Z,6.48
2023-02-16T02:53:09.515Z,6.37
2023-02-16T02:56:00.836Z,6.19
2023-02-16T02:58:52.588Z,6.34
2023-02-16T03:01:23.543Z,6.39
2023-02-16T03:03:57.112Z,6.32
2023-02-16T03:06:28.567Z,6.25
2023-02-16T03:09:01.427Z,6.30
2023-02-16T03:11:48.364Z,6.26
2023-02-16T03:14:19.579Z,6.19
2023-02-16T03:17:11.280Z,6.24
2023-02-16T03:19:59.700Z,6.20
2023-02-16T03:22:45.407Z,6.18
2023-02-16T03:25:31.290Z,6.20
2023-02-16T03:28:18.906Z,6.16
2023-02-16T03:30:48.845Z,6.14
2023-02-16T03:33:18.726Z,6.15
2023-02-16T03:35:47.279Z,6.14
2023-02-16T03:38:15.218Z,6.11
2023-02-16T03:40:45.325Z,6.07
2023-02-16T03:43:13.294Z,6.18
2023-02-16T03:45:44.283Z,6.08
2023-02-16T03:48:12.824Z,6.08
2023-02-16T03:50:42.235Z,6.14
2023-02-16T03:53:10.185Z,6.20
2023-02-16T03:55:40.791Z,5.94
2023-02-16T03:58:10.505Z,6.00
2023-02-16T04:00:39.119Z,5.96
2023-02-16T04:03:08.829Z,6.01
2023-02-16T04:05:36.981Z,5.92
2023-02-16T04:08:06.885Z,6.06
2023-02-16T04:10:34.760Z,6.02
2023-02-16T04:13:02.135Z,6.07
2023-02-16T04:15:32.021Z,6.02
2023-02-16T04:17:59.934Z,5.99
2023-02-16T04:20:29.906Z,6.07
2023-02-16T04:22:58.086Z,5.92
2023-02-16T04:25:27.487Z,5.94
2023-02-16T04:27:55.953Z,5.95
2023-02-16T04:30:26.806Z,5.95
2023-02-16T04:32:54.750Z,5.99
2023-02-16T04:35:23.254Z,5.89
2023-02-16T04:37:51.231Z,5.93
2023-02-16T04:40:19.671Z,5.98
2023-02-16T04:42:48.879Z,5.96
2023-02-16T04:45:16.773Z,5.97
2023-02-16T04:47:44.770Z,5.86
2023-02-16T04:50:13.529Z,5.92
2023-02-16T04:52:41.471Z,5.94
2023-02-16T04:55:10.794Z,5.97
2023-02-16T04:57:39.050Z,5.88
2023-02-16T05:00:11.692Z,5.91
2023-02-16T05:02:39.667Z,5.85
2023-02-16T05:05:08.643Z,5.85
2023-02-16T05:07:37.201Z,5.81
2023-02-16T05:10:06.048Z,5.81
2023-02-16T05:12:51.315Z,5.70
2023-02-16T05:15:20.590Z,5.63
2023-02-16T05:17:48.481Z,5.60
2023-02-16T05:20:16.373Z,5.57
2023-02-16T05:22:45.657Z,5.61
2023-02-16T05:25:13.865Z,5.54
2023-02-16T05:27:41.759Z,5.63
2023-02-16T05:30:10.582Z,5.62
2023-02-16T05:32:39.829Z,5.59
2023-02-16T05:35:07.869Z,5.64
2023-02-16T05:37:35.805Z,5.68
2023-02-16T05:40:03.782Z,5.72
2023-02-16T05:42:31.754Z,5.46
2023-02-16T05:44:59.651Z,5.53
2023-02-16T05:47:27.509Z,5.55
2023-02-16T05:49:56.765Z,5.61
2023-02-16T05:52:24.792Z,5.67
2023-02-16T05:54:52.678Z,5.51
2023-02-16T05:57:20.539Z,5.50
2023-02-16T05:59:48.390Z,5.49
2023-02-16T06:02:16.547Z,5.60
2023-02-16T06:04:44.413Z,5.55
2023-02-16T06:07:14.895Z,5.51
2023-02-16T06:09:42.955Z,5.59
2023-02-16T06:12:10.877Z,5.58
2023-02-16T06:14:38.746Z,5.64
2023-02-16T06:17:06.622Z,5.61
2023-02-16T06:19:34.505Z,5.61
2023-02-16T06:22:02.498Z,5.51
2023-02-16T06:24:31.855Z,5.62
2023-02-16T06:27:00.143Z,5.70
2023-02-16T06:29:28.062Z,5.79
2023-02-16T06:31:56.191Z,5.59
2023-02-16T06:34:24.194Z,5.73
2023-02-16T06:36:52.040Z,5.88
2023-02-16T06:39:20.049Z,5.87
2023-02-16T06:41:49.370Z,5.99
2023-02-16T06:44:18.343Z,5.98
2023-02-16T06:46:48.582Z,5.92
2023-02-16T06:49:19.068Z,5.81
2023-02-16T06:51:47.467Z,5.98
2023-02-16T06:54:16.268Z,6.06
2023-02-16T06:56:44.154Z,6.07
2023-02-16T06:59:13.730Z,6.26
2023-02-16T07:01:44.080Z,6.23
2023-02-16T07:04:12.800Z,6.19
2023-02-16T07:06:41.249Z,6.03
2023-02-16T07:09:10.642Z,6.29
2023-02-16T07:11:39.449Z,6.27
2023-02-16T07:14:07.339Z,6.29
2023-02-16T07:16:36.708Z,6.44
2023-02-16T07:19:05.597Z,6.53
2023-02-16T07:21:33.532Z,6.35
2023-02-16T07:24:01.421Z,6.56
2023-02-16T07:26:29.338Z,6.49
2023-02-16T07:28:57.200Z,6.47
2023-02-16T07:31:26.593Z,6.30
2023-02-16T07:33:55.853Z,6.48
2023-02-16T07:36:23.901Z,6.64
2023-02-16T07:38:51.769Z,6.56
2023-02-16T07:41:19.659Z,6.41
2023-02-16T07:43:48.206Z,6.42
2023-02-16T07:46:16.078Z,6.52
2023-02-16T07:48:43.934Z,6.58
2023-02-16T07:51:13.189Z,6.54
2023-02-16T07:53:41.076Z,6.44
2023-02-16T07:56:08.867Z,6.56
2023-02-16T07:58:36.822Z,6.79
2023-02-16T08:01:10.003Z,6.84
2023-02-16T08:03:38.026Z,6.98
2023-02-16T08:06:07.575Z,6.86
2023-02-16T08:08:37.369Z,7.04
2023-02-16T08:11:10.441Z,7.25
2023-02-16T08:13:38.183Z,7.20
2023-02-16T08:16:09.536Z,7.15
2023-02-16T08:18:37.474Z,7.24
2023-02-16T08:21:13.894Z,7.03
2023-02-16T08:23:47.530Z,6.94
2023-02-16T08:26:18.258Z,7.24
2023-02-16T08:28:47.342Z,7.03
2023-02-16T08:31:17.294Z,6.93
2023-02-16T08:33:45.788Z,7.10
2023-02-16T08:36:21.034Z,7.29
2023-02-16T08:38:51.172Z,7.20
2023-02-16T08:41:19.516Z,7.32
2023-02-16T08:43:47.887Z,7.53
2023-02-16T08:46:16.954Z,7.65
2023-02-16T08:48:46.129Z,7.57
2023-02-16T08:51:15.540Z,7.83
2023-02-16T08:53:44.071Z,7.64
2023-02-16T08:56:14.377Z,7.73
2023-02-16T08:58:44.630Z,8.01
2023-02-16T09:01:13.079Z,8.16
2023-02-16T09:03:42.911Z,8.35
2023-02-16T09:06:13.256Z,9.18
2023-02-16T09:08:41.990Z,9.44
2023-02-16T09:11:14.745Z,9.74
2023-02-16T09:13:43.713Z,9.62
2023-02-16T09:16:14.164Z,10.17
2023-02-16T09:18:42.796Z,10.31
2023-02-16T09:21:14.985Z,10.15
2023-02-16T09:23:47.426Z,10.41
2023-02-16T09:26:17.552Z,10.34
2023-02-16T09:28:47.216Z,10.85
2023-02-16T09:31:20.091Z,10.76
2023-02-16T09:33:48.133Z,10.90
2023-02-16T09:36:16.318Z,10.96
2023-02-16T09:38:44.258Z,10.99
2023-02-16T09:41:27.017Z,11.16
2023-02-16T09:43:59.257Z,11.05
2023-02-16T09:46:29.688Z,11.38
2023-02-16T09:48:57.928Z,11.73
2023-02-16T09:51:34.751Z,11.65
2023-02-16T09:54:15.343Z,11.98
2023-02-16T09:56:50.325Z,11.91
2023-02-16T09:59:33.164Z,12.18
2023-02-16T10:02:16.295Z,12.23
2023-02-16T10:04:48.837Z,12.41
2023-02-16T10:07:29.658Z,11.90
2023-02-16T10:09:58.490Z,12.84
2023-02-16T10:12:34.550Z,12.98
2023-02-16T10:15:08.196Z,13.33
2023-02-16T10:17:46.952Z,13.32
2023-02-16T10:20:17.746Z,13.27
2023-02-16T10:22:51.413Z,12.75
2023-02-16T10:25:23.496Z,12.90
2023-02-16T10:28:12.493Z,13.16
2023-02-16T10:30:44.073Z,13.02
2023-02-16T10:33:17.147Z,12.73
2023-02-16T10:35:48.891Z,13.00
2023-02-16T10:38:27.688Z,13.33
2023-02-16T10:40:59.943Z,12.80
2023-02-16T10:43:41.335Z,13.47
2023-02-16T10:46:12.817Z,14.19
2023-02-16T10:48:40.896Z,14.44
2023-02-16T10:51:12.721Z,13.93
2023-02-16T10:53:44.955Z,14.28
2023-02-16T10:56:40.400Z,13.93
2023-02-16T10:59:17.053Z,13.63
2023-02-16T11:01:46.897Z,14.14
2023-02-16T11:04:37.682Z,13.82
2023-02-16T11:07:08.510Z,13.93
2023-02-16T11:09:37.295Z,13.96
2023-02-16T11:12:16.750Z,14.29
2023-02-16T11:14:51.636Z,14.72
2023-02-16T11:17:22.283Z,14.45
2023-02-16T11:19:54.099Z,13.67
2023-02-16T11:22:34.520Z,14.12
2023-02-16T11:25:22.048Z,14.01
2023-02-16T11:27:55.498Z,14.37
2023-02-16T11:30:32.796Z,14.67
2023-02-16T11:33:04.553Z,14.92
2023-02-16T11:35:41.322Z,15.19
2023-02-16T11:38:27.169Z,15.06
2023-02-16T11:40:56.659Z,15.30
2023-02-16T11:43:29.446Z,15.10
2023-02-16T11:46:05.211Z,15.45
2023-02-16T11:48:34.386Z,15.52
2023-02-16T11:51:04.544Z,15.56
2023-02-16T11:53:33.988Z,15.81
2023-02-16T11:56:22.256Z,15.89
2023-02-16T11:59:13.940Z,15.84
2023-02-16T12:01:57.193Z,16.09
2023-02-16T12:04:38.326Z,16.46
2023-02-16T12:07:16.522Z,16.16
2023-02-16T12:09:54.811Z,15.76
2023-02-16T12:12:34.220Z,16.02
2023-02-16T12:15:07.666Z,15.86
2023-02-16T12:17:49.702Z,15.88
2023-02-16T12:20:33.244Z,15.96
2023-02-16T12:23:15.734Z,16.05
2023-02-16T12:25:51.832Z,15.83
2023-02-16T12:28:29.356Z,16.11
2023-02-16T12:31:06.167Z,15.99
2023-02-16T12:33:47.980Z,15.47
2023-02-16T12:36:46.291Z,15.72
2023-02-16T12:39:21.352Z,16.15
2023-02-16T12:41:58.515Z,15.73
2023-02-16T12:44:33.866Z,15.91
2023-02-16T12:47:04.789Z,15.74
2023-02-16T12:49:53.068Z,15.47
2023-02-16T12:52:32.422Z,15.13
2023-02-16T12:55:19.953Z,15.08
2023-02-16T12:57:55.665Z,15.24
2023-02-16T13:00:39.726Z,15.21
2023-02-16T13:03:21.873Z,15.28
2023-02-16T13:06:08.179Z,15.54
2023-02-16T13:08:43.390Z,15.51
2023-02-16T13:11:18.697Z,15.55
2023-02-16T13:13:48.962Z,15.23
2023-02-16T13:16:29.951Z,15.18
2023-02-16T13:18:58.940Z,15.52
2023-02-16T13:22:12.875Z,15.43
2023-02-16T13:24:55.252Z,15.17
2023-02-16T13:27:33.362Z,15.14
2023-02-16T13:30:17.073Z,15.32
2023-02-16T13:33:09.598Z,14.78
2023-02-16T13:36:07.652Z,15.15
2023-02-16T13:39:10.458Z,15.42
2023-02-16T13:42:06.519Z,15.40
2023-02-16T13:44:38.630Z,15.38
2023-02-16T13:47:13.669Z,15.29
2023-02-16T13:49:43.563Z,15.12
2023-02-16T13:52:12.850Z,15.35
2023-02-16T13:54:43.752Z,15.02
2023-02-16T13:57:13.379Z,15.26
2023-02-16T14:00:05.689Z,15.39
2023-02-16T14:02:57.107Z,15.46
2023-02-16T14:05:26.499Z,15.56
2023-02-16T14:08:27.617Z,15.58
2023-02-16T14:11:14.514Z,15.46
2023-02-16T14:13:49.089Z,15.39
2023-02-16T14:16:35.097Z,15.46
2023-02-16T14:19:17.706Z,15.49
2023-02-16T14:21:48.219Z,15.44
2023-02-16T14:24:31.071Z,15.30
2023-02-16T14:27:02.849Z,15.49
2023-02-16T14:29:34.057Z,15.30
2023-02-16T14:32:07.555Z,15.47
2023-02-16T14:34:42.485Z,15.59
2023-02-16T14:37:30.194Z,15.59
2023-02-16T14:40:08.673Z,15.67
2023-02-16T14:42:38.069Z,15.58
2023-02-16T14:45:22.983Z,15.53
2023-02-16T14:47:59.976Z,15.30
2023-02-16T14:50:40.689Z,15.08
2023-02-16T14:53:57.906Z,15.48
2023-02-16T14:56:38.385Z,15.51
2023-02-16T14:59:18.144Z,15.34
2023-02-16T15:01:47.272Z,15.32
2023-02-16T15:04:29.120Z,15.43
2023-02-16T15:06:59.866Z,15.30
2023-02-16T15:09:31.872Z,15.28
2023-02-16T15:12:21.519Z,15.28
2023-02-16T15:14:54.540Z,15.24
2023-02-16T15:17:30.080Z,15.20
2023-02-16T15:20:04.429Z,15.06
2023-02-16T15:22:33.475Z,15.32
2023-02-16T15:25:03.371Z,14.93
2023-02-16T15:27:32.966Z,15.21
2023-02-16T15:30:22.534Z,15.06
2023-02-16T15:32:53.360Z,15.04
2023-02-16T15:35:27.942Z,15.22
2023-02-16T15:38:10.998Z,15.27
2023-02-16T15:40:40.096Z,15.03
2023-02-16T15:43:23.889Z,14.91
2023-02-16T15:45:54.805Z,14.77
2023-02-16T15:48:30.174Z,15.07
2023-02-16T15:51:03.038Z,14.89
2023-02-16T15:53:38.319Z,14.95
2023-02-16T15:56:21.516Z,14.99
2023-02-16T15:59:05.245Z,14.90
2023-02-16T16:01:36.676Z,14.86
2023-02-16T16:04:09.343Z,14.67
2023-02-16T16:06:40.982Z,14.57
2023-02-16T16:09:18.727Z,14.31
2023-02-16T16:11:46.747Z,14.58
2023-02-16T16:14:15.430Z,14.56
2023-02-16T16:16:46.493Z,14.47
2023-02-16T16:19:20.162Z,14.12
2023-02-16T16:21:51.892Z,14.38
2023-02-16T16:24:34.119Z,14.39
2023-02-16T16:27:05.532Z,14.23
2023-02-16T16:29:38.170Z,14.05
2023-02-16T16:32:18.308Z,14.21
2023-02-16T16:34:46.601Z,14.21
2023-02-16T16:37:27.059Z,14.10
2023-02-16T16:40:05.404Z,14.05
2023-02-16T16:42:34.739Z,14.15
2023-02-16T16:45:07.510Z,13.96
2023-02-16T16:47:40.070Z,14.09
2023-02-16T16:50:30.380Z,14.15
2023-02-16T16:52:58.871Z,13.99
2023-02-16T16:55:33.246Z,14.00
2023-02-16T16:58:03.374Z,13.89
2023-02-16T17:00:35.219Z,13.95
2023-02-16T17:03:06.258Z,13.93
2023-02-16T17:05:34.496Z,13.87
2023-02-16T17:08:02.741Z,13.80
2023-02-16T17:10:30.726Z,13.84
2023-02-16T17:13:00.822Z,13.91
2023-02-16T17:15:34.358Z,13.86
2023-02-16T17:18:03.984Z,13.94
2023-02-16T17:20:32.031Z,13.90
2023-02-16T17:23:04.517Z,13.91
2023-02-16T17:25:35.003Z,13.89
2023-02-16T17:28:03.716Z,13.79
2023-02-16T17:30:31.653Z,13.82
2023-02-16T17:32:59.598Z,13.74
2023-02-16T17:35:29.455Z,13.49
2023-02-16T17:37:57.307Z,13.57
2023-02-16T17:40:26.233Z,13.79
2023-02-16T17:42:54.092Z,13.83
2023-02-16T17:45:23.167Z,13.83
2023-02-16T17:47:53.580Z,13.74
2023-02-16T17:50:22.069Z,13.65
2023-02-16T17:52:57.034Z,13.66
2023-02-16T17:55:24.971Z,13.66
2023-02-16T17:57:53.011Z,13.62
2023-02-16T18:00:22.583Z,13.71
2023-02-16T18:02:50.476Z,13.70
2023-02-16T18:05:18.521Z,13.61
2023-02-16T18:07:46.374Z,13.56
2023-02-16T18:10:33.068Z,13.47
2023-02-16T18:13:00.991Z,13.47
2023-02-16T18:15:29.035Z,13.49
2023-02-16T18:17:57.170Z,13.55
2023-02-16T18:20:26.545Z,13.64
2023-02-16T18:22:54.725Z,13.49
2023-02-16T18:25:24.360Z,13.46
2023-02-16T18:27:52.236Z,13.37
2023-02-16T18:30:20.348Z,13.31
2023-02-16T18:32:48.243Z,13.32
2023-02-16T18:35:17.120Z,13.47
2023-02-16T18:37:45.755Z,13.29
2023-02-16T18:40:16.687Z,13.31
2023-02-16T18:42:45.988Z,13.35
2023-02-16T18:45:13.893Z,13.10
2023-02-16T18:47:42.612Z,13.23
2023-02-16T18:50:11.606Z,13.04
2023-02-16T18:52:42.311Z,13.25
2023-02-16T18:55:10.806Z,13.25
2023-02-16T18:57:38.896Z,12.92
2023-02-16T19:00:09.934Z,13.16
2023-02-16T19:02:37.988Z,13.01
2023-02-16T19:05:06.947Z,13.04
2023-02-16T19:07:35.075Z,13.02
2023-02-16T19:10:03.278Z,12.98
2023-02-16T19:12:31.236Z,12.90
2023-02-16T19:14:59.093Z,13.21
2023-02-16T19:17:28.287Z,12.94
2023-02-16T19:19:56.234Z,13.06
2023-02-16T19:22:24.101Z,13.00
2023-02-16T19:24:52.162Z,13.00
2023-02-16T19:27:20.159Z,13.12
2023-02-16T19:29:48.252Z,13.16
2023-02-16T19:32:16.130Z,13.34
2023-02-16T19:34:45.450Z,13.19
2023-02-16T19:37:13.554Z,12.98
2023-02-16T19:39:41.470Z,13.15
2023-02-16T19:42:09.453Z,13.12
2023-02-16T19:44:37.344Z,13.05
2023-02-16T19:47:05.295Z,13.08
2023-02-16T19:49:33.638Z,13.15
2023-02-16T19:52:04.295Z,13.03
2023-02-16T19:54:34.900Z,12.95
2023-02-16T19:57:03.147Z,13.19
2023-02-16T19:59:31.470Z,13.19
2023-02-16T20:01:59.537Z,13.16
2023-02-16T20:04:27.469Z,13.12
2023-02-16T20:06:56.478Z,13.15
2023-02-16T20:09:26.111Z,13.27
2023-02-16T20:11:53.976Z,13.17
2023-02-16T20:14:21.851Z,13.26
2023-02-16T20:16:51.750Z,13.30
2023-02-16T20:19:20.109Z,13.18
2023-02-16T20:21:48.037Z,13.13
2023-02-16T20:24:16.341Z,13.25
2023-02-16T20:26:49.152Z,13.27
2023-02-16T20:29:17.279Z,13.22
2023-02-16T20:31:49.961Z,13.32
2023-02-16T20:34:19.154Z,13.19
2023-02-16T20:36:47.093Z,12.90
2023-02-16T20:39:15.273Z,13.10
2023-02-16T20:41:43.190Z,12.95
2023-02-16T20:44:12.946Z,13.03
2023-02-16T20:46:41.836Z,12.93
2023-02-16T20:49:10.720Z,13.06
2023-02-16T20:51:39.197Z,13.02
2023-02-16T20:54:07.179Z,12.79
2023-02-16T20:56:35.177Z,12.70
2023-02-16T20:59:03.388Z,12.76
2023-02-16T21:01:37.089Z,12.76
2023-02-16T21:04:06.085Z,12.72
2023-02-16T21:06:34.415Z,12.42
2023-02-16T21:09:02.352Z,12.34
2023-02-16T21:11:30.320Z,12.39
2023-02-16T21:13:58.509Z,12.26
2023-02-16T21:16:27.047Z,12.38
2023-02-16T21:18:56.379Z,12.34
2023-02-16T21:21:25.047Z,12.47
2023-02-16T21:23:55.200Z,12.38
2023-02-16T21:26:26.020Z,12.41
2023-02-16T21:28:54.472Z,12.32
2023-02-16T21:31:25.115Z,12.18
2023-02-16T21:33:53.684Z,12.44
2023-02-16T21:36:25.153Z,12.36
2023-02-16T21:38:53.503Z,12.28
2023-02-16T21:41:25.276Z,12.29
2023-02-16T21:44:00.600Z,12.34
2023-02-16T21:46:30.801Z,12.29
2023-02-16T21:48:58.393Z,12.34
2023-02-16T21:51:29.584Z,12.11
2023-02-16T21:53:58.816Z,12.35
2023-02-16T21:56:38.989Z,12.41
2023-02-16T21:59:09.696Z,12.40
2023-02-16T22:01:40.400Z,12.25
2023-02-16T22:04:08.469Z,11.96
2023-02-16T22:06:40.226Z,11.99
2023-02-16T22:09:10.511Z,12.13
2023-02-16T22:11:39.113Z,12.03
2023-02-16T22:14:07.390Z,12.18
2023-02-16T22:16:37.203Z,11.82
2023-02-16T22:19:07.458Z,12.09
2023-02-16T22:21:38.393Z,12.16
2023-02-16T22:24:07.368Z,12.14
2023-02-16T22:26:36.908Z,12.05
2023-02-16T22:29:06.438Z,11.66
2023-02-16T22:31:35.261Z,12.11
2023-02-16T22:34:05.728Z,12.08
2023-02-16T22:36:34.037Z,11.79
2023-02-16T22:39:03.249Z,11.82
2023-02-16T22:41:31.205Z,11.80
2023-02-16T22:44:00.044Z,11.77
2023-02-16T22:46:29.622Z,11.94
2023-02-16T22:48:59.291Z,11.63
2023-02-16T22:51:29.278Z,11.78
2023-02-16T22:53:58.671Z,11.82
2023-02-16T22:56:29.691Z,11.97
2023-02-16T22:58:58.199Z,11.83
2023-02-16T23:01:27.415Z,11.96
2023-02-16T23:03:57.569Z,11.87
2023-02-16T23:06:27.896Z,11.67
2023-02-16T23:08:58.011Z,11.69
2023-02-16T23:11:28.603Z,11.82
2023-02-16T23:13:56.598Z,11.80
2023-02-16T23:16:26.896Z,11.39
2023-02-16T23:18:56.101Z,11.63
2023-02-16T23:21:25.532Z,11.61
2023-02-16T23:23:54.674Z,11.85
2023-02-16T23:26:24.960Z,11.85
2023-02-16T23:28:56.706Z,11.90
2023-02-16T23:31:24.848Z,11.81
2023-02-16T23:33:53.384Z,11.79
2023-02-16T23:36:21.303Z,11.27
2023-02-16T23:38:49.198Z,11.76
2023-02-16T23:41:17.170Z,11.77
2023-02-16T23:43:45.335Z,11.62
2023-02-16T23:46:14.673Z,11.55
2023-02-16T23:48:42.629Z,11.74
2023-02-16T23:51:12.087Z,11.69
2023-02-16T23:53:40.287Z,11.56
2023-02-16T23:56:12.092Z,11.79
2023-02-16T23:58:42.225Z,11.72
